createdAt,value
2022-11-21T00:00:51.892Z,2.60
2022-11-21T00:03:18.796Z,2.60
2022-11-21T00:05:47.504Z,2.60
2022-11-21T00:08:16.410Z,2.60
2022-11-21T00:10:43.723Z,2.60
2022-11-21T00:13:15.968Z,2.60
2022-11-21T00:15:42.772Z,2.60
2022-11-21T00:18:11.678Z,2.60
2022-11-21T00:20:38.984Z,2.60
2022-11-21T00:23:05.928Z,2.60
2022-11-21T00:25:32.905Z,2.60
2022-11-21T00:27:59.668Z,2.60
2022-11-21T00:30:26.635Z,2.60
2022-11-21T00:32:53.319Z,2.60
2022-11-21T00:35:20.060Z,2.60
2022-11-21T00:37:48.663Z,2.60
2022-11-21T00:40:15.766Z,2.60
2022-11-21T00:42:42.772Z,2.60
2022-11-21T00:45:09.961Z,2.50
2022-11-21T00:47:36.729Z,2.50
2022-11-21T00:50:03.733Z,2.50
2022-11-21T00:52:30.417Z,2.50
2022-11-21T00:54:57.473Z,2.50
2022-11-21T00:57:24.224Z,2.50
2022-11-21T00:59:50.980Z,2.60
2022-11-21T01:02:17.637Z,2.60
2022-11-21T01:04:44.340Z,2.60
2022-11-21T01:07:14.377Z,2.60
2022-11-21T01:09:41.272Z,2.60
2022-11-21T01:12:08.054Z,2.60
2022-11-21T01:14:34.834Z,2.60
2022-11-21T01:17:01.592Z,2.60
2022-11-21T01:19:28.324Z,2.60
2022-11-21T01:21:55.042Z,2.70
2022-11-21T01:24:21.798Z,2.70
2022-11-21T01:26:50.927Z,2.70
2022-11-21T01:29:17.738Z,2.70
2022-11-21T01:31:44.580Z,2.70
2022-11-21T01:34:11.598Z,2.70
2022-11-21T01:36:38.284Z,2.70
2022-11-21T01:39:06.401Z,2.70
2022-11-21T01:41:39.003Z,2.70
2022-11-21T01:44:22.547Z,2.70
2022-11-21T01:46:50.970Z,2.70
2022-11-21T01:49:26.195Z,2.70
2022-11-21T01:52:08.569Z,2.70
2022-11-21T01:54:52.014Z,2.70
2022-11-21T01:57:41.073Z,2.70
2022-11-21T02:00:15.501Z,2.70
2022-11-21T02:02:46.295Z,2.60
2022-11-21T02:05:21.295Z,2.60
2022-11-21T02:07:49.387Z,2.70
2022-11-21T02:10:16.537Z,2.70
2022-11-21T02:12:52.311Z,2.70
2022-11-21T02:15:20.359Z,2.60
2022-11-21T02:17:47.291Z,2.60
2022-11-21T02:20:17.555Z,2.70
2022-11-21T02:22:50.113Z,2.70
2022-11-21T02:25:22.201Z,2.60
2022-11-21T02:27:52.556Z,2.60
2022-11-21T02:30:19.661Z,2.60
2022-11-21T02:32:49.490Z,2.50
2022-11-21T02:35:18.047Z,2.40
2022-11-21T02:38:01.160Z,2.30
2022-11-21T02:40:33.154Z,2.20
2022-11-21T02:43:23.251Z,2.20
2022-11-21T02:45:49.979Z,2.20
2022-11-21T02:48:16.806Z,2.20
2022-11-21T02:50:46.205Z,2.20
2022-11-21T02:53:16.957Z,2.30
2022-11-21T02:55:44.549Z,2.30
2022-11-21T02:58:11.910Z,2.30
2022-11-21T03:00:40.408Z,2.30
2022-11-21T03:03:07.297Z,2.40
2022-11-21T03:05:34.120Z,2.30
2022-11-21T03:08:00.860Z,2.30
2022-11-21T03:10:27.838Z,2.30
2022-11-21T03:13:01.046Z,2.30
2022-11-21T03:15:33.760Z,2.30
2022-11-21T03:18:02.726Z,2.30
2022-11-21T03:20:32.757Z,2.30
2022-11-21T03:22:59.505Z,2.30
2022-11-21T03:25:26.895Z,2.30
2022-11-21T03:27:54.411Z,2.30
2022-11-21T03:30:22.575Z,2.30
2022-11-21T03:32:49.369Z,2.30
2022-11-21T03:35:16.481Z,2.30
2022-11-21T03:37:43.181Z,2.30
2022-11-21T03:40:10.513Z,2.30
2022-11-21T03:42:37.180Z,2.30
2022-11-21T03:45:04.383Z,2.30
2022-11-21T03:47:31.126Z,2.20
2022-11-21T03:49:57.814Z,2.20
2022-11-21T03:52:24.570Z,2.20
2022-11-21T03:54:51.304Z,2.20
2022-11-21T03:57:17.987Z,2.20
2022-11-21T03:59:44.664Z,2.20
2022-11-21T04:02:11.443Z,2.10
2022-11-21T04:04:38.176Z,2.10
2022-11-21T04:07:04.925Z,2.10
2022-11-21T04:09:34.684Z,2.10
2022-11-21T04:12:06.433Z,2.10
2022-11-21T04:14:34.320Z,2.10
2022-11-21T04:17:01.058Z,2.20
2022-11-21T04:19:27.720Z,2.20
2022-11-21T04:21:54.413Z,2.20
2022-11-21T04:24:21.103Z,2.20
2022-11-21T04:26:47.856Z,2.20
2022-11-21T04:29:14.698Z,2.20
2022-11-21T04:31:41.357Z,2.20
2022-11-21T04:34:08.130Z,2.20
2022-11-21T04:36:34.902Z,2.20
2022-11-21T04:39:01.639Z,2.20
2022-11-21T04:41:28.394Z,2.20
2022-11-21T04:43:55.205Z,2.20
2022-11-21T04:46:21.908Z,2.20
2022-11-21T04:48:48.577Z,2.10
2022-11-21T04:51:15.310Z,2.10
2022-11-21T04:53:43.297Z,2.10
2022-11-21T04:56:10.508Z,2.10
2022-11-21T04:58:40.931Z,2.20
2022-11-21T05:01:09.162Z,2.20
2022-11-21T05:03:36.734Z,2.20
2022-11-21T05:06:03.864Z,2.20
2022-11-21T05:08:30.735Z,2.20
2022-11-21T05:11:16.568Z,2.20
2022-11-21T05:13:46.274Z,2.20
2022-11-21T05:16:13.222Z,2.20
2022-11-21T05:18:40.135Z,2.30
2022-11-21T05:21:06.895Z,2.30
2022-11-21T05:23:33.592Z,2.30
2022-11-21T05:26:00.323Z,2.30
2022-11-21T05:28:27.447Z,2.30
2022-11-21T05:30:54.185Z,2.30
2022-11-21T05:33:21.453Z,2.30
2022-11-21T05:35:48.504Z,2.30
2022-11-21T05:38:15.258Z,2.30
2022-11-21T05:40:41.993Z,2.30
2022-11-21T05:43:30.149Z,2.30
2022-11-21T05:45:56.942Z,2.40
2022-11-21T05:48:23.689Z,2.30
2022-11-21T05:50:50.589Z,2.30
2022-11-21T05:53:18.031Z,2.30
2022-11-21T05:55:45.186Z,2.40
2022-11-21T05:58:13.644Z,2.40
2022-11-21T06:00:40.504Z,2.40
2022-11-21T06:03:27.159Z,2.40
2022-11-21T06:06:15.205Z,2.40
2022-11-21T06:08:44.161Z,2.40
2022-11-21T06:11:13.883Z,2.50
2022-11-21T06:13:41.269Z,2.40
2022-11-21T06:16:16.197Z,2.50
2022-11-21T06:18:45.127Z,2.50
2022-11-21T06:21:20.156Z,2.50
2022-11-21T06:23:48.129Z,2.50
2022-11-21T06:26:16.648Z,2.50
2022-11-21T06:28:44.504Z,2.50
2022-11-21T06:31:23.073Z,2.50
2022-11-21T06:33:57.954Z,2.50
2022-11-21T06:36:25.664Z,2.50
2022-11-21T06:38:54.285Z,2.40
2022-11-21T06:41:26.123Z,2.40
2022-11-21T06:43:53.232Z,2.40
2022-11-21T06:46:20.281Z,2.40
2022-11-21T06:48:47.724Z,2.40
2022-11-21T06:51:18.551Z,2.40
2022-11-21T06:53:45.955Z,2.40
2022-11-21T06:56:12.718Z,2.40
2022-11-21T06:58:39.447Z,2.60
2022-11-21T07:01:08.243Z,2.60
2022-11-21T07:03:35.642Z,2.50
2022-11-21T07:06:03.671Z,2.50
2022-11-21T07:08:32.100Z,2.50
2022-11-21T07:13:53.347Z,2.50
2022-11-21T07:16:20.056Z,2.50
2022-11-21T07:18:46.800Z,2.50
2022-11-21T07:21:13.481Z,2.50
2022-11-21T07:23:40.233Z,2.50
2022-11-21T07:26:08.265Z,2.60
2022-11-21T07:28:35.225Z,2.60
2022-11-21T07:31:07.102Z,2.60
2022-11-21T07:33:40.127Z,2.60
2022-11-21T07:36:07.324Z,2.70
2022-11-21T07:38:34.222Z,2.60
2022-11-21T07:41:01.039Z,2.60
2022-11-21T07:43:27.746Z,2.60
2022-11-21T07:45:54.493Z,2.60
2022-11-21T07:48:21.287Z,2.60
2022-11-21T07:50:48.019Z,2.60
2022-11-21T07:53:17.219Z,2.60
2022-11-21T07:55:43.938Z,2.70
2022-11-21T07:58:16.149Z,2.70
2022-11-21T08:00:43.180Z,2.70
2022-11-21T08:03:12.201Z,2.70
2022-11-21T08:05:41.262Z,2.70
2022-11-21T08:08:08.510Z,2.80
2022-11-21T08:10:39.022Z,2.80
2022-11-21T08:13:06.101Z,2.80
2022-11-21T08:15:32.912Z,2.80
2022-11-21T08:18:06.521Z,2.80
2022-11-21T08:20:33.295Z,2.70
2022-11-21T08:23:00.123Z,2.70
2022-11-21T08:25:30.497Z,2.70
2022-11-21T08:27:57.916Z,2.70
2022-11-21T08:30:25.935Z,2.70
2022-11-21T08:32:52.800Z,2.70
2022-11-21T08:35:19.901Z,2.70
2022-11-21T08:37:49.071Z,2.70
2022-11-21T08:40:18.275Z,2.80
2022-11-21T08:42:44.940Z,2.70
2022-11-21T08:45:11.659Z,2.70
2022-11-21T08:47:38.382Z,2.70
2022-11-21T08:50:08.801Z,2.70
2022-11-21T08:52:36.200Z,2.70
2022-11-21T08:55:02.964Z,2.70
2022-11-21T08:57:31.453Z,2.80
2022-11-21T08:59:58.226Z,2.80
2022-11-21T09:02:24.882Z,2.80
2022-11-21T09:04:51.619Z,2.80
2022-11-21T09:07:18.318Z,2.80
2022-11-21T09:09:45.043Z,2.80
2022-11-21T09:12:11.799Z,2.80
2022-11-21T09:14:57.329Z,2.90
2022-11-21T09:17:42.606Z,2.90
2022-11-21T09:20:09.857Z,2.90
2022-11-21T09:22:39.442Z,2.90
2022-11-21T09:25:06.315Z,3.00
2022-11-21T09:27:32.990Z,3.00
2022-11-21T09:30:00.299Z,3.00
2022-11-21T09:32:27.044Z,3.00
2022-11-21T09:34:53.719Z,3.10
2022-11-21T09:37:20.475Z,3.10
2022-11-21T09:39:47.213Z,3.10
2022-11-21T09:43:07.780Z,3.20
2022-11-21T09:45:40.495Z,3.20
2022-11-21T09:48:14.275Z,3.20
2022-11-21T09:51:12.054Z,3.20
2022-11-21T09:54:12.413Z,3.20
2022-11-21T09:56:42.353Z,3.20
2022-11-21T09:59:39.165Z,3.20
2022-11-21T10:02:16.183Z,3.20
2022-11-21T10:04:44.489Z,3.20
2022-11-21T10:07:21.592Z,3.30
2022-11-21T10:10:03.729Z,3.30
2022-11-21T10:12:57.447Z,3.30
2022-11-21T10:15:30.619Z,3.40
2022-11-21T10:18:06.396Z,3.50
2022-11-21T10:20:44.896Z,3.60
2022-11-21T10:23:43.234Z,3.70
2022-11-21T10:26:36.053Z,4.00
2022-11-21T10:29:15.174Z,3.90
2022-11-21T10:34:19.866Z,4.10
2022-11-21T10:39:25.005Z,4.10
2022-11-21T10:42:31.379Z,4.20
2022-11-21T10:45:16.549Z,4.30
2022-11-21T10:47:44.869Z,4.40
2022-11-21T10:50:48.982Z,4.50
2022-11-21T10:53:42.840Z,4.50
2022-11-21T10:56:19.330Z,4.60
2022-11-21T10:58:49.509Z,4.60
2022-11-21T11:01:23.693Z,4.70
2022-11-21T11:04:28.813Z,4.70
2022-11-21T11:07:00.097Z,4.70
2022-11-21T11:09:32.664Z,4.70
2022-11-21T11:12:21.276Z,4.60
2022-11-21T11:14:56.156Z,4.60
2022-11-21T11:17:34.242Z,4.70
2022-11-21T11:20:05.658Z,4.70
2022-11-21T11:22:32.393Z,4.70
2022-11-21T11:25:00.936Z,4.80
2022-11-21T11:27:29.427Z,4.80
2022-11-21T11:29:56.373Z,4.80
2022-11-21T11:32:24.994Z,4.90
2022-11-21T11:35:01.208Z,4.90
2022-11-21T11:37:41.498Z,4.90
2022-11-21T11:40:20.604Z,5.00
2022-11-21T11:43:19.613Z,5.10
2022-11-21T11:46:22.016Z,5.10
2022-11-21T11:49:17.356Z,5.10
2022-11-21T11:51:44.720Z,5.10
2022-11-21T11:54:25.218Z,5.10
2022-11-21T11:56:52.774Z,5.20
2022-11-21T11:59:25.758Z,5.20
2022-11-21T12:02:29.243Z,5.30
2022-11-21T12:05:05.241Z,5.30
2022-11-21T12:10:31.180Z,5.40
2022-11-21T12:13:19.246Z,5.40
2022-11-21T12:15:59.944Z,5.40
2022-11-21T12:18:45.352Z,5.50
2022-11-21T12:21:18.804Z,5.50
2022-11-21T12:23:54.083Z,5.50
2022-11-21T12:26:20.727Z,5.50
2022-11-21T12:29:12.467Z,5.60
2022-11-21T12:32:26.414Z,5.60
2022-11-21T12:35:01.856Z,5.70
2022-11-21T12:37:47.182Z,5.70
2022-11-21T12:40:27.067Z,5.70
2022-11-21T12:43:12.540Z,5.80
2022-11-21T12:46:01.179Z,5.80
2022-11-21T12:49:17.219Z,5.90
2022-11-21T12:52:32.576Z,5.90
2022-11-21T12:55:09.839Z,6.00
2022-11-21T12:57:44.712Z,6.00
2022-11-21T13:00:12.055Z,6.10
2022-11-21T13:03:03.692Z,6.10
2022-11-21T13:05:33.792Z,6.10
2022-11-21T13:08:05.892Z,6.20
2022-11-21T13:10:32.908Z,6.10
2022-11-21T13:13:14.491Z,6.10
2022-11-21T13:15:51.710Z,6.20
2022-11-21T13:18:41.910Z,6.20
2022-11-21T13:21:41.927Z,6.20
2022-11-21T13:24:09.592Z,6.20
2022-11-21T13:26:36.498Z,6.20
2022-11-21T13:29:11.591Z,6.20
2022-11-21T13:31:39.061Z,6.30
2022-11-21T13:34:26.371Z,6.40
2022-11-21T13:36:53.350Z,6.40
2022-11-21T13:39:27.508Z,6.40
2022-11-21T13:42:27.557Z,6.40
2022-11-21T13:44:54.976Z,6.40
2022-11-21T13:47:41.128Z,6.40
2022-11-21T13:50:28.551Z,6.50
2022-11-21T13:53:28.184Z,6.50
2022-11-21T13:56:08.902Z,6.50
2022-11-21T13:59:01.701Z,6.50
2022-11-21T14:01:40.499Z,6.60
2022-11-21T14:04:55.286Z,6.60
2022-11-21T14:07:30.966Z,6.70
2022-11-21T14:10:01.505Z,6.60
2022-11-21T14:12:42.763Z,6.60
2022-11-21T14:15:16.857Z,6.60
2022-11-21T14:18:21.883Z,6.60
2022-11-21T14:20:56.904Z,6.60
2022-11-21T14:23:25.959Z,6.50
2022-11-21T14:26:12.621Z,6.50
2022-11-21T14:28:40.348Z,6.50
2022-11-21T14:31:12.428Z,6.50
2022-11-21T14:33:43.481Z,6.50
2022-11-21T14:36:19.928Z,6.50
2022-11-21T14:39:07.693Z,6.50
2022-11-21T14:41:39.144Z,6.50
2022-11-21T14:44:15.455Z,6.40
2022-11-21T14:46:43.555Z,6.40
2022-11-21T14:49:21.886Z,6.40
2022-11-21T14:51:51.921Z,6.30
2022-11-21T14:54:34.539Z,6.30
2022-11-21T14:57:08.164Z,6.30
2022-11-21T14:59:42.969Z,6.20
2022-11-21T15:02:16.386Z,6.20
2022-11-21T15:04:44.516Z,6.10
2022-11-21T15:07:31.545Z,6.10
2022-11-21T15:10:28.647Z,6.20
2022-11-21T15:12:48.638Z,6.20
2022-11-21T15:15:21.499Z,6.20
2022-11-21T15:18:18.557Z,6.20
2022-11-21T15:20:48.130Z,6.20
2022-11-21T15:23:29.137Z,6.20
2022-11-21T15:26:00.578Z,6.20
2022-11-21T15:28:29.323Z,6.20
2022-11-21T15:31:17.242Z,6.20
2022-11-21T15:34:33.744Z,6.10
2022-11-21T15:37:12.174Z,6.20
2022-11-21T15:39:44.308Z,6.10
2022-11-21T15:42:37.532Z,6.10
2022-11-21T15:45:20.065Z,6.10
2022-11-21T15:47:48.256Z,6.10
2022-11-21T15:50:15.733Z,6.10
2022-11-21T15:52:48.238Z,6.10
2022-11-21T15:55:35.373Z,6.00
2022-11-21T15:58:02.114Z,6.00
2022-11-21T16:00:28.933Z,6.00
2022-11-21T16:02:55.729Z,6.00
2022-11-21T16:05:22.550Z,6.00
2022-11-21T16:07:49.252Z,6.00
2022-11-21T16:10:21.338Z,6.10
2022-11-21T16:12:52.715Z,6.10
2022-11-21T16:15:19.465Z,6.10
2022-11-21T16:17:47.802Z,6.10
2022-11-21T16:20:15.227Z,6.20
2022-11-21T16:22:47.144Z,6.10
2022-11-21T16:25:14.888Z,6.10
2022-11-21T16:27:41.629Z,6.10
2022-11-21T16:30:08.746Z,6.10
2022-11-21T16:32:35.443Z,6.10
2022-11-21T16:35:02.158Z,6.10
2022-11-21T16:37:31.643Z,6.10
2022-11-21T16:39:58.297Z,6.10
2022-11-21T16:42:25.317Z,6.10
2022-11-21T16:44:51.999Z,6.00
2022-11-21T16:47:18.795Z,6.00
2022-11-21T16:49:48.586Z,6.00
2022-11-21T16:52:15.913Z,6.00
2022-11-21T16:54:42.595Z,6.00
2022-11-21T16:57:09.524Z,6.00
2022-11-21T16:59:36.193Z,6.00
2022-11-21T17:02:02.920Z,6.00
2022-11-21T17:04:36.351Z,6.00
2022-11-21T17:07:03.177Z,5.90
2022-11-21T17:09:29.906Z,5.90
2022-11-21T17:11:59.667Z,5.90
2022-11-21T17:14:26.783Z,6.00
2022-11-21T17:16:54.059Z,6.00
2022-11-21T17:19:20.866Z,6.00
2022-11-21T17:21:47.556Z,6.00
2022-11-21T17:24:14.524Z,6.00
2022-11-21T17:26:41.243Z,6.00
2022-11-21T17:29:09.057Z,6.00
2022-11-21T17:31:35.825Z,6.00
2022-11-21T17:34:02.539Z,6.00
2022-11-21T17:36:30.619Z,6.10
2022-11-21T17:38:57.403Z,6.10
2022-11-21T17:41:24.892Z,6.00
2022-11-21T17:43:58.594Z,6.00
2022-11-21T17:46:25.949Z,6.10
2022-11-21T17:48:57.130Z,6.10
2022-11-21T17:51:34.526Z,6.10
2022-11-21T17:54:05.079Z,6.10
2022-11-21T17:56:42.387Z,6.10
2022-11-21T17:59:15.637Z,6.10
2022-11-21T18:01:42.799Z,6.10
2022-11-21T18:04:14.912Z,6.10
2022-11-21T18:06:42.146Z,6.10
2022-11-21T18:09:15.023Z,6.20
2022-11-21T18:11:41.813Z,6.10
2022-11-21T18:14:10.861Z,6.20
2022-11-21T18:16:39.448Z,6.10
2022-11-21T18:19:06.612Z,6.10
2022-11-21T18:21:35.485Z,6.10
2022-11-21T18:24:02.435Z,6.10
2022-11-21T18:26:35.496Z,6.20
2022-11-21T18:31:50.504Z,6.10
2022-11-21T18:34:17.314Z,6.10
2022-11-21T18:36:44.092Z,6.10
2022-11-21T18:39:14.717Z,6.10
2022-11-21T18:41:42.577Z,6.10
2022-11-21T18:44:09.948Z,6.10
2022-11-21T18:46:38.388Z,6.10
2022-11-21T18:49:06.814Z,6.20
2022-11-21T18:51:35.252Z,6.10
2022-11-21T18:54:08.082Z,6.20
2022-11-21T18:56:39.814Z,6.10
2022-11-21T18:59:07.121Z,6.10
2022-11-21T19:01:35.623Z,6.10
2022-11-21T19:04:02.691Z,6.10
2022-11-21T19:06:29.658Z,6.10
2022-11-21T19:08:58.167Z,6.10
2022-11-21T19:11:27.435Z,6.10
2022-11-21T19:13:55.665Z,6.10
2022-11-21T19:16:25.288Z,6.10
2022-11-21T19:21:41.255Z,6.10
2022-11-21T19:24:13.218Z,6.10
2022-11-21T19:26:40.299Z,6.10
2022-11-21T19:29:07.026Z,6.10
2022-11-21T19:31:35.705Z,6.10
2022-11-21T19:34:05.957Z,6.10
2022-11-21T19:36:32.672Z,6.10
2022-11-21T19:39:00.324Z,6.20
2022-11-21T19:41:27.146Z,6.10
2022-11-21T19:43:57.131Z,6.10
2022-11-21T19:46:31.091Z,6.10
2022-11-21T19:48:58.591Z,6.10
2022-11-21T19:51:31.081Z,6.10
2022-11-21T19:53:58.024Z,6.20
2022-11-21T19:56:26.037Z,6.20
2022-11-21T19:58:53.328Z,6.20
2022-11-21T20:01:22.503Z,6.20
2022-11-21T20:03:52.129Z,6.20
2022-11-21T20:06:25.019Z,6.20
2022-11-21T20:08:54.143Z,6.20
2022-11-21T20:11:21.834Z,6.20
2022-11-21T20:13:49.745Z,6.20
2022-11-21T20:16:26.830Z,6.20
2022-11-21T20:18:57.733Z,6.20
2022-11-21T20:21:27.369Z,6.20
2022-11-21T20:23:54.931Z,6.20
2022-11-21T20:26:23.276Z,6.20
2022-11-21T20:28:50.152Z,6.20
2022-11-21T20:31:19.214Z,6.20
2022-11-21T20:33:51.378Z,6.20
2022-11-21T20:36:20.507Z,6.20
2022-11-21T20:39:21.411Z,6.20
2022-11-21T20:41:48.457Z,6.20
2022-11-21T20:47:08.500Z,6.20
2022-11-21T20:49:35.373Z,6.20
2022-11-21T20:54:49.026Z,6.20
2022-11-21T20:57:16.038Z,6.20
2022-11-21T20:59:43.309Z,6.20
2022-11-21T21:02:14.032Z,6.20
2022-11-21T21:04:41.408Z,6.20
2022-11-21T21:07:08.260Z,6.20
2022-11-21T21:09:35.149Z,6.20
2022-11-21T21:12:01.889Z,6.20
2022-11-21T21:14:28.785Z,6.20
2022-11-21T21:16:55.633Z,6.20
2022-11-21T21:19:22.483Z,6.20
2022-11-21T21:21:50.214Z,6.10
2022-11-21T21:24:17.371Z,6.20
2022-11-21T21:26:48.819Z,6.20
2022-11-21T21:29:18.402Z,6.20
2022-11-21T21:31:50.368Z,6.20
2022-11-21T21:34:18.815Z,6.20
2022-11-21T21:36:45.553Z,6.20
2022-11-21T21:39:12.254Z,6.10
2022-11-21T21:41:46.012Z,6.20
2022-11-21T21:44:13.351Z,6.10
2022-11-21T21:46:40.091Z,6.20
2022-11-21T21:49:06.827Z,6.20
2022-11-21T21:51:33.646Z,6.10
2022-11-21T21:54:00.454Z,6.20
2022-11-21T21:56:28.936Z,6.10
2022-11-21T21:58:58.612Z,6.10
2022-11-21T22:01:30.721Z,6.20
2022-11-21T22:03:59.314Z,6.10
2022-11-21T22:06:26.639Z,6.10
2022-11-21T22:08:54.610Z,6.10
2022-11-21T22:11:26.713Z,6.10
2022-11-21T22:13:58.236Z,6.10
2022-11-21T22:16:25.849Z,6.10
2022-11-21T22:18:52.674Z,6.10
2022-11-21T22:21:36.992Z,6.10
2022-11-21T22:24:25.000Z,6.10
2022-11-21T22:27:02.660Z,6.10
2022-11-21T22:29:29.358Z,6.10
2022-11-21T22:31:56.162Z,6.10
2022-11-21T22:34:23.094Z,6.10
2022-11-21T22:36:49.981Z,6.10
2022-11-21T22:39:19.322Z,6.10
2022-11-21T22:41:46.139Z,6.10
2022-11-21T22:44:13.180Z,6.10
2022-11-21T22:46:39.945Z,6.10
2022-11-21T22:49:08.809Z,6.10
2022-11-21T22:51:38.112Z,6.10
2022-11-21T22:54:04.888Z,6.10
2022-11-21T22:56:31.575Z,6.10
2022-11-21T22:58:58.350Z,6.10
2022-11-21T23:01:26.350Z,6.10
2022-11-21T23:03:53.479Z,6.10
2022-11-21T23:06:23.589Z,6.10
2022-11-21T23:08:51.331Z,6.10
2022-11-21T23:11:24.437Z,6.10
2022-11-21T23:13:52.056Z,6.10
2022-11-21T23:16:19.649Z,6.10
2022-11-21T23:18:46.627Z,6.20
2022-11-21T23:21:13.879Z,6.20
2022-11-21T23:23:40.965Z,6.10
2022-11-21T23:26:07.742Z,6.10
2022-11-21T23:28:34.576Z,6.20
2022-11-21T23:31:01.702Z,6.10
2022-11-21T23:33:28.383Z,6.10
2022-11-21T23:35:55.294Z,6.10
2022-11-21T23:38:22.188Z,6.10
2022-11-21T23:40:49.900Z,6.10
2022-11-21T23:43:17.839Z,6.10
2022-11-21T23:45:45.549Z,6.10
2022-11-21T23:48:12.462Z,6.10
2022-11-21T23:50:39.295Z,6.10
2022-11-21T23:53:06.121Z,6.20
2022-11-21T23:55:32.887Z,6.10
2022-11-21T23:58:02.214Z,6.10
